sensor_id;sensor_type;location;lat;lon;timestamp;pressure;altitude;pressure_sealevel;temperature;humidity
2401;BME280;1211;43.200;27.914;2022-07-24T00:01:35;101148.22;;;23.50;100.00
2401;BME280;1211;43.200;27.914;2022-07-24T00:04:03;101156.25;;;23.34;100.00
2401;BME280;1211;43.200;27.914;2022-07-24T00:06:30;101147.81;;;23.41;100.00
2401;BME280;1211;43.200;27.914;2022-07-24T00:08:57;101148.66;;;23.31;100.00
2401;BME280;1211;43.200;27.914;2022-07-24T00:11:24;101149.84;;;23.37;100.00
2401;BME280;1211;43.200;27.914;2022-07-24T00:13:52;101147.44;;;23.35;100.00
2401;BME280;1211;43.200;27.914;2022-07-24T00:16:19;101149.03;;;23.29;100.00
2401;BME280;1211;43.200;27.914;2022-07-24T00:18:47;101144.63;;;23.28;100.00
2401;BME280;1211;43.200;27.914;2022-07-24T00:21:14;101150.28;;;23.14;100.00
2401;BME280;1211;43.200;27.914;2022-07-24T00:23:41;101154.66;;;23.15;100.00
2401;BME280;1211;43.200;27.914;2022-07-24T00:26:08;101156.28;;;23.13;100.00
2401;BME280;1211;43.200;27.914;2022-07-24T00:28:35;101154.28;;;23.13;100.00
2401;BME280;1211;43.200;27.914;2022-07-24T00:31:02;101144.25;;;23.09;100.00
2401;BME280;1211;43.200;27.914;2022-07-24T00:33:29;101138.59;;;23.16;100.00
2401;BME280;1211;43.200;27.914;2022-07-24T00:35:58;101133.03;;;23.02;100.00
2401;BME280;1211;43.200;27.914;2022-07-24T00:38:24;101138.22;;;23.07;100.00
2401;BME280;1211;43.200;27.914;2022-07-24T00:40:51;101133.03;;;22.94;100.00
2401;BME280;1211;43.200;27.914;2022-07-24T00:43:18;101126.59;;;22.90;100.00
2401;BME280;1211;43.200;27.914;2022-07-24T00:45:46;101121.00;;;22.90;100.00
2401;BME280;1211;43.200;27.914;2022-07-24T00:48:13;101118.56;;;22.96;100.00
2401;BME280;1211;43.200;27.914;2022-07-24T00:50:40;101127.78;;;22.93;100.00
2401;BME280;1211;43.200;27.914;2022-07-24T00:53:08;101126.59;;;22.94;100.00
2401;BME280;1211;43.200;27.914;2022-07-24T00:55:36;101117.34;;;22.93;100.00
2401;BME280;1211;43.200;27.914;2022-07-24T00:58:03;101102.06;;;23.16;100.00
2401;BME280;1211;43.200;27.914;2022-07-24T01:00:30;101101.72;;;23.03;100.00
2401;BME280;1211;43.200;27.914;2022-07-24T01:02:57;101106.53;;;22.99;100.00
2401;BME280;1211;43.200;27.914;2022-07-24T01:05:24;101106.13;;;23.08;100.00
2401;BME280;1211;43.200;27.914;2022-07-24T01:07:51;101099.72;;;22.96;100.00
2401;BME280;1211;43.200;27.914;2022-07-24T01:10:20;101098.88;;;22.99;100.00
2401;BME280;1211;43.200;27.914;2022-07-24T01:12:47;101092.47;;;22.99;100.00
2401;BME280;1211;43.200;27.914;2022-07-24T01:15:14;101089.28;;;22.97;100.00
2401;BME280;1211;43.200;27.914;2022-07-24T01:17:41;101092.91;;;22.97;100.00
2401;BME280;1211;43.200;27.914;2022-07-24T01:20:10;101084.88;;;22.96;100.00
2401;BME280;1211;43.200;27.914;2022-07-24T01:22:38;101090.09;;;22.90;100.00
2401;BME280;1211;43.200;27.914;2022-07-24T01:25:06;101089.69;;;22.74;100.00
2401;BME280;1211;43.200;27.914;2022-07-24T01:27:33;101096.53;;;22.80;100.00
2401;BME280;1211;43.200;27.914;2022-07-24T01:30:00;101093.72;;;22.80;100.00
2401;BME280;1211;43.200;27.914;2022-07-24T01:32:27;101085.63;;;22.65;100.00
2401;BME280;1211;43.200;27.914;2022-07-24T01:34:54;101092.84;;;22.69;100.00
2401;BME280;1211;43.200;27.914;2022-07-24T01:37:21;101083.25;;;22.67;100.00
2401;BME280;1211;43.200;27.914;2022-07-24T01:39:49;101077.63;;;22.67;100.00
2401;BME280;1211;43.200;27.914;2022-07-24T01:42:16;101073.59;;;22.64;100.00
2401;BME280;1211;43.200;27.914;2022-07-24T01:44:45;101074.81;;;22.67;100.00
2401;BME280;1211;43.200;27.914;2022-07-24T01:47:12;101078.44;;;22.88;100.00
2401;BME280;1211;43.200;27.914;2022-07-24T01:49:39;101080.41;;;22.70;100.00
2401;BME280;1211;43.200;27.914;2022-07-24T01:52:07;101070.81;;;22.68;100.00
2401;BME280;1211;43.200;27.914;2022-07-24T01:54:34;101063.97;;;22.65;100.00
2401;BME280;1211;43.200;27.914;2022-07-24T01:57:02;101064.78;;;22.66;100.00
2401;BME280;1211;43.200;27.914;2022-07-24T01:59:30;101068.00;;;22.60;100.00
2401;BME280;1211;43.200;27.914;2022-07-24T02:01:57;101067.19;;;22.53;100.00
2401;BME280;1211;43.200;27.914;2022-07-24T02:04:23;101066.00;;;22.54;100.00
2401;BME280;1211;43.200;27.914;2022-07-24T02:06:50;101068.81;;;22.61;100.00
2401;BME280;1211;43.200;27.914;2022-07-24T02:09:17;101064.38;;;22.67;100.00
2401;BME280;1211;43.200;27.914;2022-07-24T02:11:44;101062.00;;;22.62;100.00
2401;BME280;1211;43.200;27.914;2022-07-24T02:14:12;101063.59;;;22.56;100.00
2401;BME280;1211;43.200;27.914;2022-07-24T02:16:39;101060.78;;;22.59;100.00
2401;BME280;1211;43.200;27.914;2022-07-24T02:19:06;101067.22;;;22.46;100.00
2401;BME280;1211;43.200;27.914;2022-07-24T02:21:33;101061.97;;;22.41;100.00
2401;BME280;1211;43.200;27.914;2022-07-24T02:24:00;101058.78;;;22.39;100.00
2401;BME280;1211;43.200;27.914;2022-07-24T02:26:27;101056.78;;;22.50;100.00
2401;BME280;1211;43.200;27.914;2022-07-24T02:28:54;101063.59;;;22.49;100.00
2401;BME280;1211;43.200;27.914;2022-07-24T02:31:23;101063.97;;;22.40;100.00
2401;BME280;1211;43.200;27.914;2022-07-24T02:33:50;101069.19;;;22.38;100.00
2401;BME280;1211;43.200;27.914;2022-07-24T02:36:17;101059.97;;;22.31;100.00
2401;BME280;1211;43.200;27.914;2022-07-24T02:38:44;101052.75;;;22.23;100.00
2401;BME280;1211;43.200;27.914;2022-07-24T02:41:11;101064.75;;;22.19;100.00
2401;BME280;1211;43.200;27.914;2022-07-24T02:43:38;101057.94;;;22.21;100.00
2401;BME280;1211;43.200;27.914;2022-07-24T02:46:05;101060.38;;;22.33;100.00
2401;BME280;1211;43.200;27.914;2022-07-24T02:48:33;101068.00;;;22.39;100.00
2401;BME280;1211;43.200;27.914;2022-07-24T02:51:00;101059.56;;;22.29;100.00
2401;BME280;1211;43.200;27.914;2022-07-24T02:53:27;101061.97;;;22.27;100.00
2401;BME280;1211;43.200;27.914;2022-07-24T02:55:54;101054.75;;;22.29;100.00
2401;BME280;1211;43.200;27.914;2022-07-24T02:58:21;101051.53;;;22.20;100.00
2401;BME280;1211;43.200;27.914;2022-07-24T03:00:48;101057.97;;;22.17;100.00
2401;BME280;1211;43.200;27.914;2022-07-24T03:03:15;101051.13;;;22.14;100.00
2401;BME280;1211;43.200;27.914;2022-07-24T03:05:43;101047.13;;;22.23;100.00
2401;BME280;1211;43.200;27.914;2022-07-24T03:08:10;101049.94;;;22.30;100.00
2401;BME280;1211;43.200;27.914;2022-07-24T03:10:37;101056.78;;;22.29;100.00
2401;BME280;1211;43.200;27.914;2022-07-24T03:13:04;101053.53;;;22.27;100.00
2401;BME280;1211;43.200;27.914;2022-07-24T03:15:31;101057.94;;;22.35;100.00
2401;BME280;1211;43.200;27.914;2022-07-24T03:17:58;101050.34;;;22.32;100.00
2401;BME280;1211;43.200;27.914;2022-07-24T03:20:27;101056.75;;;22.43;100.00
2401;BME280;1211;43.200;27.914;2022-07-24T03:22:56;101049.94;;;22.44;100.00
2401;BME280;1211;43.200;27.914;2022-07-24T03:25:23;101045.53;;;22.39;100.00
2401;BME280;1211;43.200;27.914;2022-07-24T03:27:50;101056.34;;;22.48;100.00
2401;BME280;1211;43.200;27.914;2022-07-24T03:30:18;101050.75;;;22.55;100.00
2401;BME280;1211;43.200;27.914;2022-07-24T03:32:45;101039.91;;;22.60;100.00
2401;BME280;1211;43.200;27.914;2022-07-24T03:35:12;101045.53;;;22.71;100.00
2401;BME280;1211;43.200;27.914;2022-07-24T03:37:40;101041.94;;;22.74;100.00
2401;BME280;1211;43.200;27.914;2022-07-24T03:40:09;101042.75;;;22.85;100.00
2401;BME280;1211;43.200;27.914;2022-07-24T03:42:36;101047.13;;;22.97;100.00
2401;BME280;1211;43.200;27.914;2022-07-24T03:45:04;101049.53;;;22.95;100.00
2401;BME280;1211;43.200;27.914;2022-07-24T03:47:31;101046.31;;;23.04;100.00
2401;BME280;1211;43.200;27.914;2022-07-24T03:49:58;101044.66;;;23.17;100.00
2401;BME280;1211;43.200;27.914;2022-07-24T03:52:25;101049.13;;;22.93;100.00
2401;BME280;1211;43.200;27.914;2022-07-24T03:54:52;101043.88;;;23.13;100.00
2401;BME280;1211;43.200;27.914;2022-07-24T03:57:22;101055.03;;;23.41;100.00
2401;BME280;1211;43.200;27.914;2022-07-24T03:59:49;101058.66;;;23.49;100.00
2401;BME280;1211;43.200;27.914;2022-07-24T04:02:16;101060.69;;;23.27;100.00
2401;BME280;1211;43.200;27.914;2022-07-24T04:04:42;101050.16;;;23.56;100.00
2401;BME280;1211;43.200;27.914;2022-07-24T04:07:09;101059.28;;;23.81;100.00
2401;BME280;1211;43.200;27.914;2022-07-24T04:09:36;101054.00;;;23.90;100.00
2401;BME280;1211;43.200;27.914;2022-07-24T04:12:03;101051.88;;;24.08;100.00
2401;BME280;1211;43.200;27.914;2022-07-24T04:14:32;101055.59;;;24.53;100.00
2401;BME280;1211;43.200;27.914;2022-07-24T04:16:59;101049.84;;;25.80;100.00
2401;BME280;1211;43.200;27.914;2022-07-24T04:19:26;101052.22;;;27.09;100.00
2401;BME280;1211;43.200;27.914;2022-07-24T04:21:53;101057.81;;;27.12;100.00
2401;BME280;1211;43.200;27.914;2022-07-24T04:24:19;101054.63;;;27.50;100.00
2401;BME280;1211;43.200;27.914;2022-07-24T04:26:46;101056.25;;;28.06;100.00
2401;BME280;1211;43.200;27.914;2022-07-24T04:29:13;101053.22;;;27.97;100.00
2401;BME280;1211;43.200;27.914;2022-07-24T04:31:41;101056.81;;;28.17;100.00
2401;BME280;1211;43.200;27.914;2022-07-24T04:34:09;101053.31;;;28.78;100.00
2401;BME280;1211;43.200;27.914;2022-07-24T04:36:36;101059.88;;;29.49;100.00
2401;BME280;1211;43.200;27.914;2022-07-24T04:39:03;101058.47;;;30.84;100.00
2401;BME280;1211;43.200;27.914;2022-07-24T04:41:30;101047.25;;;31.15;100.00
2401;BME280;1211;43.200;27.914;2022-07-24T04:43:57;101062.03;;;30.37;100.00
2401;BME280;1211;43.200;27.914;2022-07-24T04:46:23;101063.28;;;30.74;100.00
2401;BME280;1211;43.200;27.914;2022-07-24T04:48:52;101058.22;;;31.03;100.00
2401;BME280;1211;43.200;27.914;2022-07-24T04:51:19;101059.81;;;31.48;100.00
2401;BME280;1211;43.200;27.914;2022-07-24T04:53:45;101060.63;;;31.27;100.00
2401;BME280;1211;43.200;27.914;2022-07-24T04:56:13;101067.75;;;31.09;100.00
2401;BME280;1211;43.200;27.914;2022-07-24T04:58:40;101068.72;;;30.81;100.00
2401;BME280;1211;43.200;27.914;2022-07-24T05:01:07;101070.41;;;31.47;100.00
2401;BME280;1211;43.200;27.914;2022-07-24T05:03:34;101069.91;;;32.63;100.00
2401;BME280;1211;43.200;27.914;2022-07-24T05:06:02;101073.31;;;32.00;100.00
2401;BME280;1211;43.200;27.914;2022-07-24T05:08:29;101076.19;;;33.07;100.00
2401;BME280;1211;43.200;27.914;2022-07-24T05:10:56;101081.41;;;33.09;100.00
2401;BME280;1211;43.200;27.914;2022-07-24T05:13:23;101080.44;;;32.76;100.00
2401;BME280;1211;43.200;27.914;2022-07-24T05:15:50;101074.09;;;32.90;100.00
2401;BME280;1211;43.200;27.914;2022-07-24T05:18:17;101074.44;;;32.92;100.00
2401;BME280;1211;43.200;27.914;2022-07-24T05:20:44;101068.31;;;32.53;100.00
2401;BME280;1211;43.200;27.914;2022-07-24T05:23:12;101079.66;;;32.35;100.00
2401;BME280;1211;43.200;27.914;2022-07-24T05:25:39;101066.50;;;32.87;100.00
2401;BME280;1211;43.200;27.914;2022-07-24T05:28:06;101070.44;;;32.80;100.00
2401;BME280;1211;43.200;27.914;2022-07-24T05:30:33;101076.06;;;33.20;100.00
2401;BME280;1211;43.200;27.914;2022-07-24T05:33:00;101075.06;;;32.96;100.00
2401;BME280;1211;43.200;27.914;2022-07-24T05:35:27;101077.88;;;32.68;100.00
2401;BME280;1211;43.200;27.914;2022-07-24T05:37:53;101074.94;;;32.41;100.00
2401;BME280;1211;43.200;27.914;2022-07-24T05:40:22;101079.84;;;33.72;100.00
2401;BME280;1211;43.200;27.914;2022-07-24T05:42:49;101080.16;;;33.74;100.00
2401;BME280;1211;43.200;27.914;2022-07-24T05:45:16;101078.81;;;34.68;96.20
2401;BME280;1211;43.200;27.914;2022-07-24T05:47:43;101080.06;;;34.01;97.79
2401;BME280;1211;43.200;27.914;2022-07-24T05:50:12;101079.84;;;34.56;95.35
2401;BME280;1211;43.200;27.914;2022-07-24T05:52:39;101079.41;;;34.15;97.22
2401;BME280;1211;43.200;27.914;2022-07-24T05:55:08;101077.59;;;33.67;99.19
2401;BME280;1211;43.200;27.914;2022-07-24T05:57:37;101074.13;;;32.99;100.00
2401;BME280;1211;43.200;27.914;2022-07-24T06:00:04;101090.03;;;33.45;100.00
2401;BME280;1211;43.200;27.914;2022-07-24T06:02:31;101085.28;;;33.33;100.00
2401;BME280;1211;43.200;27.914;2022-07-24T06:04:58;101079.25;;;33.22;100.00
2401;BME280;1211;43.200;27.914;2022-07-24T06:07:25;101077.13;;;33.13;100.00
2401;BME280;1211;43.200;27.914;2022-07-24T06:09:52;101074.47;;;33.37;100.00
2401;BME280;1211;43.200;27.914;2022-07-24T06:12:19;101075.38;;;33.07;100.00
2401;BME280;1211;43.200;27.914;2022-07-24T06:14:47;101076.84;;;33.48;100.00
2401;BME280;1211;43.200;27.914;2022-07-24T06:17:14;101066.84;;;33.25;100.00
2401;BME280;1211;43.200;27.914;2022-07-24T06:19:41;101057.81;;;33.18;100.00
2401;BME280;1211;43.200;27.914;2022-07-24T06:22:08;101067.00;;;32.94;100.00
2401;BME280;1211;43.200;27.914;2022-07-24T06:24:34;101060.97;;;32.43;100.00
2401;BME280;1211;43.200;27.914;2022-07-24T06:27:01;101056.72;;;32.08;100.00
2401;BME280;1211;43.200;27.914;2022-07-24T06:29:30;101061.28;;;32.36;100.00
2401;BME280;1211;43.200;27.914;2022-07-24T06:31:58;101061.00;;;31.81;100.00
2401;BME280;1211;43.200;27.914;2022-07-24T06:34:25;101058.16;;;32.52;100.00
2401;BME280;1211;43.200;27.914;2022-07-24T06:36:52;101062.47;;;32.66;100.00
2401;BME280;1211;43.200;27.914;2022-07-24T06:39:19;101063.97;;;32.30;100.00
2401;BME280;1211;43.200;27.914;2022-07-24T06:41:46;101061.50;;;31.58;100.00
2401;BME280;1211;43.200;27.914;2022-07-24T06:44:13;101059.66;;;31.95;100.00
2401;BME280;1211;43.200;27.914;2022-07-24T06:46:40;101060.94;;;32.25;100.00
2401;BME280;1211;43.200;27.914;2022-07-24T06:49:09;101058.78;;;32.47;100.00
2401;BME280;1211;43.200;27.914;2022-07-24T06:51:35;101061.09;;;33.71;100.00
2401;BME280;1211;43.200;27.914;2022-07-24T06:54:02;101062.66;;;33.90;100.00
2401;BME280;1211;43.200;27.914;2022-07-24T06:56:29;101052.53;;;33.62;100.00
2401;BME280;1211;43.200;27.914;2022-07-24T06:58:56;101048.09;;;32.97;100.00
2401;BME280;1211;43.200;27.914;2022-07-24T07:01:24;101044.94;;;33.31;100.00
2401;BME280;1211;43.200;27.914;2022-07-24T07:03:51;101048.72;;;33.01;100.00
2401;BME280;1211;43.200;27.914;2022-07-24T07:06:19;101040.00;;;32.86;100.00
2401;BME280;1211;43.200;27.914;2022-07-24T07:08:46;101037.56;;;32.48;100.00
2401;BME280;1211;43.200;27.914;2022-07-24T07:11:13;101041.13;;;33.07;100.00
2401;BME280;1211;43.200;27.914;2022-07-24T07:13:40;101037.66;;;32.94;100.00
2401;BME280;1211;43.200;27.914;2022-07-24T07:16:07;101047.16;;;33.00;100.00
2401;BME280;1211;43.200;27.914;2022-07-24T07:18:34;101038.28;;;33.43;100.00
2401;BME280;1211;43.200;27.914;2022-07-24T07:21:02;101045.25;;;33.51;100.00
2401;BME280;1211;43.200;27.914;2022-07-24T07:23:30;101037.94;;;32.87;100.00
2401;BME280;1211;43.200;27.914;2022-07-24T07:25:57;101031.53;;;32.46;100.00
2401;BME280;1211;43.200;27.914;2022-07-24T07:28:24;101022.44;;;32.29;100.00
2401;BME280;1211;43.200;27.914;2022-07-24T07:30:50;101028.13;;;31.89;100.00
2401;BME280;1211;43.200;27.914;2022-07-24T07:33:17;101042.56;;;32.93;100.00
2401;BME280;1211;43.200;27.914;2022-07-24T07:35:44;101036.38;;;33.04;100.00
2401;BME280;1211;43.200;27.914;2022-07-24T07:38:11;101034.50;;;33.28;100.00
2401;BME280;1211;43.200;27.914;2022-07-24T07:40:40;101029.19;;;33.54;100.00
2401;BME280;1211;43.200;27.914;2022-07-24T07:43:06;101037.31;;;32.83;100.00
2401;BME280;1211;43.200;27.914;2022-07-24T07:45:33;101037.88;;;32.10;100.00
2401;BME280;1211;43.200;27.914;2022-07-24T07:48:00;101028.75;;;31.41;100.00
2401;BME280;1211;43.200;27.914;2022-07-24T07:50:30;101029.88;;;32.27;100.00
2401;BME280;1211;43.200;27.914;2022-07-24T07:52:57;101021.31;;;32.18;100.00
2401;BME280;1211;43.200;27.914;2022-07-24T07:55:24;101023.63;;;32.59;100.00
2401;BME280;1211;43.200;27.914;2022-07-24T07:57:53;101027.81;;;33.31;100.00
2401;BME280;1211;43.200;27.914;2022-07-24T08:00:20;101016.84;;;33.30;100.00
2401;BME280;1211;43.200;27.914;2022-07-24T08:02:47;101029.03;;;32.66;100.00
2401;BME280;1211;43.200;27.914;2022-07-24T08:05:13;101019.91;;;32.31;100.00
2401;BME280;1211;43.200;27.914;2022-07-24T08:07:40;101016.19;;;31.73;100.00
2401;BME280;1211;43.200;27.914;2022-07-24T08:10:07;101010.13;;;32.42;100.00
2401;BME280;1211;43.200;27.914;2022-07-24T08:12:34;101024.47;;;32.87;100.00
2401;BME280;1211;43.200;27.914;2022-07-24T08:15:03;101018.81;;;32.38;100.00
2401;BME280;1211;43.200;27.914;2022-07-24T08:17:30;101019.41;;;33.46;100.00
2401;BME280;1211;43.200;27.914;2022-07-24T08:19:57;101015.09;;;33.41;100.00
2401;BME280;1211;43.200;27.914;2022-07-24T08:22:24;101016.22;;;33.35;100.00
2401;BME280;1211;43.200;27.914;2022-07-24T08:24:50;101014.16;;;33.44;100.00
2401;BME280;1211;43.200;27.914;2022-07-24T08:27:17;101009.72;;;33.07;100.00
2401;BME280;1211;43.200;27.914;2022-07-24T08:29:44;101013.81;;;33.51;100.00
2401;BME280;1211;43.200;27.914;2022-07-24T08:32:12;101011.78;;;32.79;100.00
2401;BME280;1211;43.200;27.914;2022-07-24T08:34:39;101021.63;;;31.89;100.00
2401;BME280;1211;43.200;27.914;2022-07-24T08:37:06;101016.59;;;32.33;100.00
2401;BME280;1211;43.200;27.914;2022-07-24T08:39:33;101014.09;;;32.53;100.00
2401;BME280;1211;43.200;27.914;2022-07-24T08:42:00;101011.63;;;32.15;100.00
2401;BME280;1211;43.200;27.914;2022-07-24T08:44:27;101026.50;;;32.78;100.00
2401;BME280;1211;43.200;27.914;2022-07-24T08:46:54;101024.00;;;32.98;100.00
2401;BME280;1211;43.200;27.914;2022-07-24T08:49:26;101024.00;;;33.07;100.00
2401;BME280;1211;43.200;27.914;2022-07-24T08:51:59;101018.66;;;34.29;100.00
2401;BME280;1211;43.200;27.914;2022-07-24T08:54:27;101011.47;;;32.95;100.00
2401;BME280;1211;43.200;27.914;2022-07-24T08:56:57;101022.69;;;33.53;100.00
2401;BME280;1211;43.200;27.914;2022-07-24T08:59:24;101023.66;;;33.50;100.00
2401;BME280;1211;43.200;27.914;2022-07-24T09:01:51;101024.00;;;33.43;100.00
2401;BME280;1211;43.200;27.914;2022-07-24T09:04:35;101008.31;;;33.90;100.00
2401;BME280;1211;43.200;27.914;2022-07-24T09:07:04;101027.09;;;33.64;100.00
2401;BME280;1211;43.200;27.914;2022-07-24T09:09:32;101024.31;;;33.18;100.00
2401;BME280;1211;43.200;27.914;2022-07-24T09:12:06;101009.41;;;33.14;100.00
2401;BME280;1211;43.200;27.914;2022-07-24T09:14:35;101022.25;;;33.09;100.00
2401;BME280;1211;43.200;27.914;2022-07-24T09:17:04;101025.06;;;33.55;100.00
2401;BME280;1211;43.200;27.914;2022-07-24T09:19:45;101025.47;;;34.56;100.00
2401;BME280;1211;43.200;27.914;2022-07-24T09:22:19;101018.91;;;33.99;100.00
2401;BME280;1211;43.200;27.914;2022-07-24T09:25:03;101013.66;;;34.06;100.00
2401;BME280;1211;43.200;27.914;2022-07-24T09:27:31;101018.25;;;33.62;100.00
2401;BME280;1211;43.200;27.914;2022-07-24T09:29:58;101016.78;;;33.75;100.00
2401;BME280;1211;43.200;27.914;2022-07-24T09:32:25;101014.13;;;34.05;99.21
2401;BME280;1211;43.200;27.914;2022-07-24T09:34:54;101022.03;;;33.77;99.51
2401;BME280;1211;43.200;27.914;2022-07-24T09:37:22;101015.63;;;33.91;100.00
2401;BME280;1211;43.200;27.914;2022-07-24T09:39:52;101013.78;;;33.70;100.00
2401;BME280;1211;43.200;27.914;2022-07-24T09:42:29;101018.13;;;33.98;100.00
2401;BME280;1211;43.200;27.914;2022-07-24T09:45:05;101014.75;;;33.58;100.00
2401;BME280;1211;43.200;27.914;2022-07-24T09:47:34;101016.63;;;34.21;100.00
2401;BME280;1211;43.200;27.914;2022-07-24T09:50:13;101017.41;;;34.21;100.00
2401;BME280;1211;43.200;27.914;2022-07-24T09:52:41;101019.56;;;34.36;100.00
2401;BME280;1211;43.200;27.914;2022-07-24T09:55:20;101024.16;;;34.66;100.00
2401;BME280;1211;43.200;27.914;2022-07-24T09:57:47;101019.84;;;34.70;100.00
2401;BME280;1211;43.200;27.914;2022-07-24T10:00:15;101024.75;;;35.32;100.00
2401;BME280;1211;43.200;27.914;2022-07-24T10:02:44;101023.13;;;34.78;100.00
2401;BME280;1211;43.200;27.914;2022-07-24T10:05:13;101023.16;;;34.93;100.00
2401;BME280;1211;43.200;27.914;2022-07-24T10:07:41;101013.53;;;33.40;100.00
2401;BME280;1211;43.200;27.914;2022-07-24T10:10:09;101008.13;;;33.24;100.00
2401;BME280;1211;43.200;27.914;2022-07-24T10:12:37;101010.97;;;32.79;100.00
2401;BME280;1211;43.200;27.914;2022-07-24T10:15:05;101008.31;;;32.93;100.00
2401;BME280;1211;43.200;27.914;2022-07-24T10:17:55;101017.88;;;34.53;100.00
2401;BME280;1211;43.200;27.914;2022-07-24T10:20:37;101014.06;;;33.81;100.00
2401;BME280;1211;43.200;27.914;2022-07-24T10:23:06;101006.72;;;33.10;100.00
2401;BME280;1211;43.200;27.914;2022-07-24T10:25:47;101009.72;;;32.98;100.00
2401;BME280;1211;43.200;27.914;2022-07-24T10:28:31;101010.19;;;33.42;100.00
2401;BME280;1211;43.200;27.914;2022-07-24T10:31:03;101008.84;;;34.12;100.00
2401;BME280;1211;43.200;27.914;2022-07-24T10:33:30;101014.19;;;35.53;99.60
2401;BME280;1211;43.200;27.914;2022-07-24T10:36:02;101003.94;;;35.76;96.44
2401;BME280;1211;43.200;27.914;2022-07-24T10:38:33;101008.53;;;34.91;99.02
2401;BME280;1211;43.200;27.914;2022-07-24T10:41:09;101012.22;;;34.44;100.00
2401;BME280;1211;43.200;27.914;2022-07-24T10:43:36;101011.66;;;33.28;100.00
2401;BME280;1211;43.200;27.914;2022-07-24T10:46:10;101001.63;;;33.15;100.00
2401;BME280;1211;43.200;27.914;2022-07-24T10:48:38;101010.03;;;32.91;100.00
2401;BME280;1211;43.200;27.914;2022-07-24T10:51:11;101002.13;;;32.86;100.00
2401;BME280;1211;43.200;27.914;2022-07-24T10:53:48;101008.72;;;32.55;100.00
2401;BME280;1211;43.200;27.914;2022-07-24T10:56:18;100995.88;;;32.02;100.00
2401;BME280;1211;43.200;27.914;2022-07-24T10:58:53;100993.81;;;32.02;100.00
2401;BME280;1211;43.200;27.914;2022-07-24T11:01:28;101000.97;;;31.76;100.00
2401;BME280;1211;43.200;27.914;2022-07-24T11:03:55;101008.44;;;31.73;100.00
2401;BME280;1211;43.200;27.914;2022-07-24T11:06:41;101004.88;;;31.60;100.00
2401;BME280;1211;43.200;27.914;2022-07-24T11:09:08;100998.94;;;31.55;100.00
2401;BME280;1211;43.200;27.914;2022-07-24T11:11:40;100997.88;;;31.92;100.00
2401;BME280;1211;43.200;27.914;2022-07-24T11:14:08;100988.53;;;31.39;100.00
2401;BME280;1211;43.200;27.914;2022-07-24T11:16:36;100992.75;;;31.03;100.00
2401;BME280;1211;43.200;27.914;2022-07-24T11:19:26;100984.88;;;31.07;100.00
2401;BME280;1211;43.200;27.914;2022-07-24T11:22:09;100978.44;;;30.82;100.00
2401;BME280;1211;43.200;27.914;2022-07-24T11:25:05;100982.19;;;30.91;100.00
2401;BME280;1211;43.200;27.914;2022-07-24T11:27:41;100977.91;;;30.40;100.00
2401;BME280;1211;43.200;27.914;2022-07-24T11:30:09;100984.03;;;30.51;100.00
2401;BME280;1211;43.200;27.914;2022-07-24T11:32:38;100988.75;;;30.66;100.00
2401;BME280;1211;43.200;27.914;2022-07-24T11:35:06;100980.22;;;31.23;100.00
2401;BME280;1211;43.200;27.914;2022-07-24T11:37:36;100979.97;;;31.30;100.00
2401;BME280;1211;43.200;27.914;2022-07-24T11:40:05;100971.09;;;30.72;100.00
2401;BME280;1211;43.200;27.914;2022-07-24T11:42:33;100970.63;;;30.51;100.00
2401;BME280;1211;43.200;27.914;2022-07-24T11:45:00;100963.28;;;29.91;100.00
2401;BME280;1211;43.200;27.914;2022-07-24T11:47:28;100967.28;;;29.93;100.00
2401;BME280;1211;43.200;27.914;2022-07-24T11:49:56;100967.38;;;30.02;100.00
2401;BME280;1211;43.200;27.914;2022-07-24T11:52:27;100954.84;;;30.12;100.00
2401;BME280;1211;43.200;27.914;2022-07-24T11:54:59;100960.56;;;30.59;100.00
2401;BME280;1211;43.200;27.914;2022-07-24T11:57:28;100950.00;;;30.00;100.00
2401;BME280;1211;43.200;27.914;2022-07-24T11:59:55;100955.84;;;30.31;100.00
2401;BME280;1211;43.200;27.914;2022-07-24T12:02:22;100961.69;;;30.02;100.00
2401;BME280;1211;43.200;27.914;2022-07-24T12:04:50;100949.41;;;30.05;100.00
2401;BME280;1211;43.200;27.914;2022-07-24T12:07:19;100956.06;;;30.37;100.00
2401;BME280;1211;43.200;27.914;2022-07-24T12:09:49;100954.63;;;30.19;100.00
2401;BME280;1211;43.200;27.914;2022-07-24T12:12:26;100941.47;;;30.47;100.00
2401;BME280;1211;43.200;27.914;2022-07-24T12:15:00;100955.59;;;30.51;100.00
2401;BME280;1211;43.200;27.914;2022-07-24T12:17:28;100936.53;;;30.13;100.00
2401;BME280;1211;43.200;27.914;2022-07-24T12:19:58;100938.03;;;29.80;100.00
2401;BME280;1211;43.200;27.914;2022-07-24T12:22:26;100932.25;;;30.09;100.00
2401;BME280;1211;43.200;27.914;2022-07-24T12:24:56;100933.47;;;30.89;100.00
2401;BME280;1211;43.200;27.914;2022-07-24T12:27:36;100941.00;;;30.83;100.00
2401;BME280;1211;43.200;27.914;2022-07-24T12:30:19;100941.41;;;30.94;100.00
2401;BME280;1211;43.200;27.914;2022-07-24T12:32:57;100944.31;;;30.47;100.00
2401;BME280;1211;43.200;27.914;2022-07-24T12:35:25;100939.00;;;30.71;100.00
2401;BME280;1211;43.200;27.914;2022-07-24T12:37:53;100943.78;;;30.40;100.00
2401;BME280;1211;43.200;27.914;2022-07-24T12:40:29;100932.84;;;30.51;100.00
2401;BME280;1211;43.200;27.914;2022-07-24T12:43:00;100936.72;;;30.44;100.00
2401;BME280;1211;43.200;27.914;2022-07-24T12:45:27;100940.75;;;30.68;100.00
2401;BME280;1211;43.200;27.914;2022-07-24T12:48:16;100935.47;;;30.80;100.00
2401;BME280;1211;43.200;27.914;2022-07-24T12:50:59;100929.63;;;30.83;100.00
2401;BME280;1211;43.200;27.914;2022-07-24T12:53:27;100927.31;;;30.69;100.00
2401;BME280;1211;43.200;27.914;2022-07-24T12:56:06;100921.53;;;30.60;100.00
2401;BME280;1211;43.200;27.914;2022-07-24T12:58:58;100919.59;;;30.91;100.00